createdAt,value
2018-04-12T00:02:30.283Z,1.40
2018-04-12T00:05:04.328Z,1.40
2018-04-12T00:07:37.584Z,1.40
2018-04-12T00:10:10.869Z,1.10
2018-04-12T00:12:44.125Z,1.50
2018-04-12T00:15:17.395Z,0.97
2018-04-12T00:17:50.652Z,1.37
2018-04-12T00:20:23.933Z,1.20
2018-04-12T00:22:57.179Z,1.60
2018-04-12T00:25:30.465Z,1.40
2018-04-12T00:28:03.720Z,1.30
2018-04-12T00:30:37.000Z,1.07
2018-04-12T00:33:10.255Z,1.30
2018-04-12T00:35:43.539Z,0.93
2018-04-12T00:38:40.839Z,1.00
2018-04-12T00:41:14.096Z,1.40
2018-04-12T00:43:47.384Z,1.03
2018-04-12T00:46:20.639Z,0.97
2018-04-12T00:48:53.908Z,1.03
2018-04-12T00:51:27.164Z,0.80
2018-04-12T00:54:06.355Z,0.90
2018-04-12T00:56:39.611Z,0.90
2018-04-12T00:59:12.896Z,0.97
2018-04-12T01:01:46.154Z,1.00
2018-04-12T01:04:20.461Z,0.80
2018-04-12T01:06:53.719Z,1.40
2018-04-12T01:09:27.180Z,0.67
2018-04-12T01:12:00.443Z,1.00
2018-04-12T01:14:33.715Z,1.13
2018-04-12T01:17:06.976Z,1.13
2018-04-12T01:19:40.248Z,0.97
2018-04-12T01:22:14.272Z,0.77
2018-04-12T01:24:47.542Z,1.20
2018-04-12T01:27:21.568Z,0.90
2018-04-12T01:29:55.608Z,0.70
2018-04-12T01:32:28.871Z,0.90
2018-04-12T01:35:02.920Z,0.70
2018-04-12T01:37:36.175Z,0.80
2018-04-12T01:40:10.215Z,1.00
2018-04-12T01:42:43.481Z,1.10
2018-04-12T01:45:16.752Z,0.80
2018-04-12T01:47:50.026Z,1.00
2018-04-12T01:50:23.286Z,1.10
2018-04-12T01:52:56.570Z,0.90
2018-04-12T01:55:29.826Z,1.10
2018-04-12T01:58:03.099Z,0.80
2018-04-12T02:00:36.359Z,1.03
2018-04-12T02:03:09.652Z,1.10
2018-04-12T02:06:07.636Z,0.90
2018-04-12T02:08:40.907Z,0.77
2018-04-12T02:11:14.172Z,1.17
2018-04-12T02:13:48.220Z,0.90
2018-04-12T02:16:21.479Z,0.53
2018-04-12T02:18:55.520Z,1.00
2018-04-12T02:21:28.780Z,0.70
2018-04-12T02:24:02.811Z,0.83
2018-04-12T02:26:36.079Z,0.87
2018-04-12T02:29:09.349Z,0.90
2018-04-12T02:31:42.618Z,0.63
2018-04-12T02:34:15.885Z,0.93
2018-04-12T02:36:49.147Z,0.70
2018-04-12T02:39:22.423Z,0.70
2018-04-12T02:41:55.687Z,0.60
2018-04-12T02:44:28.969Z,0.70
2018-04-12T02:47:02.248Z,0.60
2018-04-12T02:49:36.256Z,0.53
2018-04-12T02:52:10.290Z,0.60
2018-04-12T02:54:43.560Z,0.50
2018-04-12T02:57:17.594Z,0.60
2018-04-12T02:59:50.854Z,1.33
2018-04-12T03:02:24.123Z,0.40
2018-04-12T03:04:57.376Z,0.80
2018-04-12T03:07:30.652Z,0.80
2018-04-12T03:10:04.668Z,0.67
2018-04-12T03:12:38.705Z,0.70
2018-04-12T03:15:11.959Z,0.63
2018-04-12T03:17:45.997Z,0.63
2018-04-12T03:20:19.246Z,0.83
2018-04-12T03:22:52.519Z,0.47
2018-04-12T03:25:25.783Z,0.50
2018-04-12T03:27:59.064Z,0.50
2018-04-12T03:30:32.323Z,0.50
2018-04-12T03:33:05.609Z,0.40
2018-04-12T03:35:38.859Z,0.53
2018-04-12T03:38:31.536Z,0.70
2018-04-12T03:41:04.818Z,0.60
2018-04-12T03:43:38.071Z,0.90
2018-04-12T03:46:12.116Z,0.50
2018-04-12T03:48:45.424Z,0.50
2018-04-12T03:51:19.405Z,0.50
2018-04-12T03:53:52.660Z,0.67
2018-04-12T03:56:25.940Z,0.30
2018-04-12T03:58:59.191Z,0.60
2018-04-12T04:01:32.463Z,0.60
2018-04-12T04:04:06.479Z,0.50
2018-04-12T04:06:39.758Z,1.07
2018-04-12T04:09:13.780Z,0.40
2018-04-12T04:11:47.815Z,0.93
2018-04-12T04:14:38.936Z,0.70
2018-04-12T04:17:30.028Z,0.70
2018-04-12T04:20:21.924Z,0.73
2018-04-12T04:22:55.201Z,0.60
2018-04-12T04:25:28.455Z,0.60
2018-04-12T04:28:01.726Z,0.50
2018-04-12T04:30:35.743Z,0.50
2018-04-12T04:33:09.786Z,0.40
2018-04-12T04:35:43.044Z,0.60
2018-04-12T04:38:16.319Z,0.40
2018-04-12T04:40:49.576Z,0.47
2018-04-12T04:43:22.852Z,0.60
2018-04-12T04:45:56.104Z,0.80
2018-04-12T04:48:29.377Z,0.40
2018-04-12T04:51:02.631Z,0.50
2018-04-12T04:53:35.911Z,0.33
2018-04-12T04:56:09.176Z,0.37
2018-04-12T04:58:42.453Z,0.60
2018-04-12T05:01:15.707Z,0.60
2018-04-12T05:03:48.980Z,0.50
2018-04-12T05:06:23.005Z,0.50
2018-04-12T05:08:56.275Z,0.50
2018-04-12T05:11:30.301Z,0.43
2018-04-12T05:14:04.336Z,0.50
2018-04-12T05:16:37.594Z,0.37
2018-04-12T05:19:11.639Z,0.87
2018-04-12T05:21:44.887Z,0.40
2018-04-12T05:24:18.172Z,0.50
2018-04-12T05:26:51.436Z,0.50
2018-04-12T05:29:24.717Z,0.50
2018-04-12T05:31:57.963Z,0.70
2018-04-12T05:34:31.273Z,0.50
2018-04-12T05:37:10.415Z,0.50
2018-04-12T05:39:43.684Z,0.40
2018-04-12T05:42:16.960Z,0.60
2018-04-12T05:44:50.245Z,0.37
2018-04-12T05:47:23.491Z,0.60
2018-04-12T05:49:56.763Z,0.60
2018-04-12T05:52:30.787Z,0.50
2018-04-12T05:55:04.059Z,0.50
2018-04-12T05:57:37.329Z,0.50
2018-04-12T06:00:10.589Z,0.67
2018-04-12T06:02:43.843Z,0.43
2018-04-12T06:05:17.119Z,0.30
2018-04-12T06:07:50.379Z,0.50
2018-04-12T06:10:23.646Z,0.50
2018-04-12T06:12:57.673Z,0.50
2018-04-12T06:15:30.943Z,0.80
2018-04-12T06:18:04.191Z,0.40
2018-04-12T06:20:37.479Z,0.47
2018-04-12T06:23:10.733Z,0.50
2018-04-12T06:25:44.775Z,0.50
2018-04-12T06:28:18.032Z,0.30
2018-04-12T06:30:52.073Z,0.40
2018-04-12T06:33:25.328Z,0.40
2018-04-12T06:35:58.615Z,0.37
2018-04-12T06:38:31.869Z,0.40
2018-04-12T06:41:05.136Z,0.40
2018-04-12T06:43:38.396Z,0.40
2018-04-12T06:46:11.681Z,0.53
2018-04-12T06:48:44.946Z,0.40
2018-04-12T06:51:18.229Z,0.30
2018-04-12T06:53:51.563Z,0.73
2018-04-12T06:56:24.804Z,0.60
2018-04-12T06:58:58.087Z,0.50
2018-04-12T07:01:32.106Z,0.50
2018-04-12T07:04:05.701Z,0.57
2018-04-12T07:06:38.955Z,0.63
2018-04-12T07:09:12.243Z,0.40
2018-04-12T07:11:45.504Z,0.40
2018-04-12T07:14:18.776Z,0.40
2018-04-12T07:16:52.040Z,0.70
2018-04-12T07:19:25.315Z,0.50
2018-04-12T07:21:58.574Z,0.90
2018-04-12T07:24:31.861Z,0.60
2018-04-12T07:27:05.163Z,0.40
2018-04-12T07:29:38.453Z,0.40
2018-04-12T07:32:11.707Z,0.40
2018-04-12T07:34:44.980Z,0.47
2018-04-12T07:37:18.232Z,0.40
2018-04-12T07:39:51.504Z,0.20
2018-04-12T07:42:25.527Z,0.30
2018-04-12T07:44:58.813Z,0.40
2018-04-12T07:47:32.061Z,0.37
2018-04-12T07:50:05.325Z,0.30
2018-04-12T07:52:38.595Z,0.53
2018-04-12T07:55:11.874Z,0.40
2018-04-12T07:57:45.129Z,0.60
2018-04-12T08:00:19.163Z,0.30
2018-04-12T08:02:52.428Z,0.30
2018-04-12T08:05:25.708Z,0.20
2018-04-12T08:07:58.981Z,0.37
2018-04-12T08:10:32.223Z,0.60
2018-04-12T08:13:05.480Z,0.50
2018-04-12T08:15:38.760Z,0.53
2018-04-12T08:18:12.798Z,0.40
2018-04-12T08:20:46.051Z,0.30
2018-04-12T08:23:19.332Z,0.40
2018-04-12T08:25:52.595Z,0.30
2018-04-12T08:28:25.867Z,0.30
2018-04-12T08:30:59.120Z,0.50
2018-04-12T08:33:32.393Z,0.30
2018-04-12T08:36:05.657Z,0.30
2018-04-12T08:38:38.932Z,0.20
2018-04-12T08:41:12.184Z,0.20
2018-04-12T08:43:45.459Z,0.30
2018-04-12T08:46:18.708Z,0.23
2018-04-12T08:48:52.756Z,0.30
2018-04-12T08:51:26.012Z,0.30
2018-04-12T08:54:00.047Z,0.30
2018-04-12T08:56:33.304Z,0.30
2018-04-12T08:59:07.344Z,0.20
2018-04-12T09:01:40.603Z,0.20
2018-04-12T09:04:13.867Z,0.37
2018-04-12T09:06:47.151Z,0.30
2018-04-12T09:09:20.405Z,0.17
2018-04-12T09:11:53.661Z,0.20
2018-04-12T09:14:26.927Z,0.30
2018-04-12T09:17:00.176Z,0.30
2018-04-12T09:19:34.221Z,0.30
2018-04-12T09:22:07.489Z,0.20
2018-04-12T09:24:41.531Z,0.23
2018-04-12T09:27:14.786Z,0.30
2018-04-12T09:29:48.827Z,0.30
2018-04-12T09:32:22.088Z,0.20
2018-04-12T09:34:56.129Z,0.20
2018-04-12T09:37:29.395Z,0.30
2018-04-12T09:40:03.434Z,0.30
2018-04-12T09:42:36.692Z,0.20
2018-04-12T09:45:10.753Z,0.20
2018-04-12T09:47:44.004Z,0.40
2018-04-12T09:50:18.049Z,0.60
2018-04-12T09:52:51.309Z,0.30
2018-04-12T09:55:25.348Z,0.20
2018-04-12T09:57:58.606Z,0.37
2018-04-12T10:00:31.872Z,0.50
2018-04-12T10:03:10.734Z,0.30
2018-04-12T10:05:49.593Z,0.53
2018-04-12T10:08:27.835Z,0.60
2018-04-12T10:11:01.104Z,0.67
2018-04-12T10:13:34.355Z,0.53
2018-04-12T10:16:08.435Z,0.23
2018-04-12T10:18:41.715Z,0.30
2018-04-12T10:21:14.980Z,0.33
2018-04-12T10:23:48.235Z,0.30
2018-04-12T10:26:21.513Z,0.30
2018-04-12T10:28:55.546Z,0.30
2018-04-12T10:31:28.813Z,0.27
2018-04-12T10:34:02.066Z,0.40
2018-04-12T10:36:35.343Z,0.37
2018-04-12T10:39:09.372Z,0.43
2018-04-12T10:41:42.697Z,0.20
2018-04-12T10:44:16.679Z,0.43
2018-04-12T10:46:49.966Z,0.40
2018-04-12T10:49:23.985Z,0.77
2018-04-12T10:51:57.318Z,0.30
2018-04-12T10:54:31.279Z,0.40
2018-04-12T10:57:04.556Z,0.20
2018-04-12T10:59:38.606Z,0.30
2018-04-12T11:02:11.864Z,0.47
2018-04-12T11:04:45.137Z,0.60
2018-04-12T11:07:18.393Z,0.30
2018-04-12T11:09:51.675Z,0.40
2018-04-12T11:12:24.928Z,0.20
2018-04-12T11:14:58.200Z,0.60
2018-04-12T11:17:31.452Z,0.40
2018-04-12T11:20:04.732Z,0.40
2018-04-12T11:22:38.753Z,0.20
2018-04-12T11:25:12.020Z,0.30
2018-04-12T11:27:45.269Z,0.30
2018-04-12T11:30:18.553Z,0.47
2018-04-12T11:32:51.813Z,0.20
2018-04-12T11:35:25.852Z,0.30
2018-04-12T11:37:59.108Z,0.20
2018-04-12T11:40:33.148Z,0.13
2018-04-12T11:43:06.399Z,0.30
2018-04-12T11:45:39.671Z,0.20
2018-04-12T11:48:12.948Z,0.33
2018-04-12T11:50:46.196Z,0.27
2018-04-12T11:53:19.456Z,0.30
2018-04-12T11:55:52.751Z,0.40
2018-04-12T11:58:25.985Z,0.20
2018-04-12T12:00:59.250Z,0.20
2018-04-12T12:03:32.512Z,0.30
2018-04-12T12:06:05.790Z,0.30
2018-04-12T12:08:39.056Z,0.30
2018-04-12T12:11:13.099Z,0.50
2018-04-12T12:13:46.360Z,0.37
2018-04-12T12:16:20.408Z,0.40
2018-04-12T12:18:53.675Z,0.40
2018-04-12T12:21:26.942Z,0.20
2018-04-12T12:24:00.212Z,0.20
2018-04-12T12:26:33.492Z,0.30
2018-04-12T12:29:06.768Z,0.30
2018-04-12T12:31:40.020Z,0.60
2018-04-12T12:34:13.289Z,0.33
2018-04-12T12:36:46.552Z,0.40
2018-04-12T12:39:19.827Z,0.50
2018-04-12T12:41:53.860Z,0.30
2018-04-12T12:44:27.140Z,0.20
2018-04-12T12:47:00.393Z,0.30
2018-04-12T12:49:33.668Z,0.30
2018-04-12T12:52:06.912Z,0.40
2018-04-12T12:54:40.960Z,0.30
2018-04-12T12:57:14.207Z,0.30
2018-04-12T12:59:48.252Z,0.30
2018-04-12T13:02:21.516Z,0.30
2018-04-12T13:04:54.799Z,0.67
2018-04-12T13:07:28.057Z,0.77
2018-04-12T13:10:01.391Z,0.30
2018-04-12T13:12:34.601Z,0.30
2018-04-12T13:15:07.880Z,0.30
2018-04-12T13:17:41.136Z,0.43
2018-04-12T13:20:14.412Z,0.40
2018-04-12T13:22:47.673Z,0.20
2018-04-12T13:25:20.947Z,0.20
2018-04-12T13:27:54.211Z,0.40
2018-04-12T13:30:27.478Z,0.70
2018-04-12T13:33:00.780Z,0.40
2018-04-12T13:35:34.008Z,0.37
2018-04-12T13:38:07.267Z,0.40
2018-04-12T13:40:40.549Z,0.30
2018-04-12T13:43:13.805Z,0.30
2018-04-12T13:45:47.082Z,0.40
2018-04-12T13:48:20.334Z,0.40
2018-04-12T13:50:53.613Z,0.63
2018-04-12T13:53:27.641Z,0.50
2018-04-12T13:56:00.907Z,0.50
2018-04-12T13:58:34.157Z,0.30
2018-04-12T14:01:07.429Z,0.30
2018-04-12T14:03:40.693Z,0.50
2018-04-12T14:06:14.740Z,0.63
2018-04-12T14:08:47.985Z,0.50
2018-04-12T14:11:21.401Z,0.30
2018-04-12T14:13:55.425Z,0.43
2018-04-12T14:16:28.705Z,0.50
2018-04-12T14:19:01.961Z,0.40
2018-04-12T14:21:35.237Z,0.40
2018-04-12T14:24:08.505Z,0.40
2018-04-12T14:26:41.791Z,0.40
2018-04-12T14:29:18.597Z,0.33
2018-04-12T14:31:51.866Z,0.80
2018-04-12T14:34:25.168Z,0.43
2018-04-12T14:36:58.431Z,0.80
2018-04-12T14:39:33.671Z,0.60
2018-04-12T14:42:07.697Z,0.93
2018-04-12T14:44:41.755Z,0.53
2018-04-12T14:47:15.035Z,0.50
2018-04-12T14:49:48.300Z,0.80
2018-04-12T14:52:21.564Z,0.50
2018-04-12T14:54:54.871Z,0.50
2018-04-12T14:57:28.134Z,0.50
2018-04-12T15:00:01.409Z,0.50
2018-04-12T15:02:34.673Z,0.60
2018-04-12T15:05:07.949Z,0.50
2018-04-12T15:07:41.972Z,0.60
2018-04-12T15:10:15.250Z,0.60
2018-04-12T15:12:48.505Z,0.50
2018-04-12T15:15:21.772Z,0.63
2018-04-12T15:17:55.040Z,0.40
2018-04-12T15:20:29.092Z,0.30
2018-04-12T15:23:02.359Z,0.50
2018-04-12T15:25:35.635Z,0.63
2018-04-12T15:28:08.929Z,0.50
2018-04-12T15:30:42.970Z,0.53
2018-04-12T15:33:16.228Z,0.53
2018-04-12T15:35:50.296Z,0.47
2018-04-12T15:38:23.564Z,0.40
2018-04-12T15:40:56.849Z,0.40
2018-04-12T15:43:30.109Z,0.50
2018-04-12T15:46:03.751Z,0.53
2018-04-12T15:48:37.013Z,0.60
2018-04-12T15:51:10.289Z,0.40
2018-04-12T15:53:43.553Z,0.40
2018-04-12T15:56:16.830Z,0.40
2018-04-12T15:58:50.090Z,0.80
2018-04-12T16:01:23.633Z,0.50
2018-04-12T16:03:56.925Z,0.40
2018-04-12T16:06:30.427Z,0.30
2018-04-12T16:09:03.825Z,0.67
2018-04-12T16:11:37.190Z,0.40
2018-04-12T16:14:11.224Z,0.40
2018-04-12T16:16:44.498Z,0.40
2018-04-12T16:19:18.526Z,0.37
2018-04-12T16:21:51.805Z,0.40
2018-04-12T16:24:25.830Z,0.47
2018-04-12T16:27:01.465Z,0.53
2018-04-12T16:29:35.511Z,0.60
2018-04-12T16:32:08.793Z,0.40
2018-04-12T16:34:42.049Z,0.30
2018-04-12T16:37:15.319Z,0.37
2018-04-12T16:39:48.576Z,0.30
2018-04-12T16:42:21.852Z,0.40
2018-04-12T16:44:55.128Z,0.50
2018-04-12T16:47:29.165Z,0.23
2018-04-12T16:50:02.425Z,0.30
2018-04-12T16:52:35.701Z,0.30
2018-04-12T16:55:08.956Z,0.50
2018-04-12T16:57:42.349Z,0.40
2018-04-12T17:00:15.693Z,0.43
2018-04-12T17:02:48.976Z,0.30
2018-04-12T17:05:22.245Z,0.33
2018-04-12T17:07:55.516Z,0.27
2018-04-12T17:10:28.780Z,0.20
2018-04-12T17:13:02.064Z,0.30
2018-04-12T17:15:35.325Z,0.30
2018-04-12T17:18:08.614Z,0.30
2018-04-12T17:20:41.865Z,0.50
2018-04-12T17:23:15.186Z,0.40
2018-04-12T17:25:48.440Z,0.30
2018-04-12T17:28:21.714Z,0.40
2018-04-12T17:30:54.960Z,0.30
2018-04-12T17:33:28.248Z,0.40
2018-04-12T17:36:02.283Z,0.50
2018-04-12T17:38:35.570Z,0.60
2018-04-12T17:41:08.828Z,0.30
2018-04-12T17:43:42.107Z,0.50
2018-04-12T17:46:15.360Z,0.30
2018-04-12T17:48:48.649Z,0.50
2018-04-12T17:51:22.388Z,0.40
2018-04-12T17:53:55.660Z,0.50
2018-04-12T17:56:28.915Z,0.40
2018-04-12T17:59:02.197Z,0.50
2018-04-12T18:01:35.444Z,0.50
2018-04-12T18:04:08.719Z,0.57
2018-04-12T18:06:42.005Z,0.50
2018-04-12T18:09:15.258Z,0.40
2018-04-12T18:11:48.538Z,0.80
2018-04-12T18:14:21.803Z,0.50
2018-04-12T18:16:55.077Z,0.40
2018-04-12T18:19:28.340Z,0.83
2018-04-12T18:22:01.625Z,0.50
2018-04-12T18:24:35.815Z,0.50
2018-04-12T18:27:09.100Z,0.30
2018-04-12T18:29:42.360Z,0.60
2018-04-12T18:32:16.393Z,0.53
2018-04-12T18:34:49.651Z,0.50
2018-04-12T18:37:22.928Z,0.40
2018-04-12T18:39:56.244Z,0.67
2018-04-12T18:42:29.507Z,0.80
2018-04-12T18:45:02.770Z,0.47
2018-04-12T18:47:36.060Z,0.57
2018-04-12T18:50:09.313Z,0.33
2018-04-12T18:52:42.589Z,0.50
2018-04-12T18:55:15.839Z,0.40
2018-04-12T18:57:49.129Z,0.40
2018-04-12T19:00:22.382Z,0.83
2018-04-12T19:02:55.750Z,0.50
2018-04-12T19:05:29.003Z,0.67
2018-04-12T19:08:02.291Z,0.90
2018-04-12T19:10:36.322Z,1.23
2018-04-12T19:13:09.603Z,1.20
2018-04-12T19:15:43.616Z,0.70
2018-04-12T19:18:17.665Z,0.57
2018-04-12T19:20:50.926Z,0.60
2018-04-12T19:23:24.214Z,0.80
2018-04-12T19:25:58.255Z,0.40
2018-04-12T19:28:31.533Z,0.60
2018-04-12T19:31:04.775Z,0.50
2018-04-12T19:33:38.055Z,0.43
2018-04-12T19:36:11.315Z,0.60
2018-04-12T19:38:44.606Z,0.33
2018-04-12T19:41:17.852Z,0.40
2018-04-12T19:43:51.125Z,0.50
2018-04-12T19:46:24.368Z,0.90
2018-04-12T19:48:58.408Z,0.67
2018-04-12T19:51:31.671Z,0.57
2018-04-12T19:54:04.936Z,1.03
2018-04-12T19:56:38.184Z,1.00
2018-04-12T19:59:11.460Z,0.90
2018-04-12T20:01:45.500Z,0.50
2018-04-12T20:04:18.767Z,0.40
2018-04-12T20:06:52.059Z,0.50
2018-04-12T20:09:25.331Z,0.40
2018-04-12T20:11:58.636Z,0.70
2018-04-12T20:14:32.665Z,0.50
2018-04-12T20:17:05.971Z,0.47
2018-04-12T20:19:39.228Z,0.50
2018-04-12T20:22:12.500Z,0.40
2018-04-12T20:24:45.753Z,0.57
2018-04-12T20:27:19.045Z,0.60
2018-04-12T20:29:52.296Z,0.63
2018-04-12T20:32:25.569Z,0.50
2018-04-12T20:34:58.838Z,0.50
2018-04-12T20:37:32.116Z,0.50
2018-04-12T20:40:05.367Z,0.40
2018-04-12T20:42:38.675Z,0.57
2018-04-12T20:45:12.701Z,0.60
2018-04-12T20:47:46.318Z,0.60
2018-04-12T20:50:19.569Z,0.50
2018-04-12T20:52:53.725Z,0.60
2018-04-12T20:55:26.978Z,0.40
2018-04-12T20:58:00.282Z,0.60
2018-04-12T21:00:34.299Z,0.50
2018-04-12T21:03:07.608Z,0.40
2018-04-12T21:05:40.856Z,0.47
2018-04-12T21:08:14.150Z,0.43
2018-04-12T21:10:47.397Z,0.37
2018-04-12T21:13:20.684Z,0.40
2018-04-12T21:15:53.952Z,0.40
2018-04-12T21:18:27.221Z,0.40
2018-04-12T21:21:00.461Z,0.40
2018-04-12T21:23:33.743Z,0.50
2018-04-12T21:26:06.996Z,0.40
2018-04-12T21:28:40.273Z,1.03
2018-04-12T21:31:13.528Z,0.50
2018-04-12T21:33:47.561Z,0.70
2018-04-12T21:36:20.807Z,0.50
2018-04-12T21:38:54.084Z,0.47
2018-04-12T21:41:27.344Z,0.40
2018-04-12T21:44:00.619Z,0.43
2018-04-12T21:46:33.876Z,0.60
2018-04-12T21:49:07.166Z,0.70
2018-04-12T21:51:40.416Z,0.77
2018-04-12T21:54:13.683Z,0.50
2018-04-12T21:56:47.707Z,0.50
2018-04-12T21:59:21.748Z,0.50
2018-04-12T22:01:55.003Z,0.40
2018-04-12T22:04:29.027Z,0.40
2018-04-12T22:07:02.311Z,0.40
2018-04-12T22:09:36.360Z,0.47
2018-04-12T22:12:09.669Z,0.50
2018-04-12T22:14:42.917Z,0.80
2018-04-12T22:17:17.002Z,0.40
2018-04-12T22:19:50.259Z,0.40
2018-04-12T22:22:23.532Z,0.40
2018-04-12T22:24:56.792Z,0.50
2018-04-12T22:27:30.064Z,0.30
2018-04-12T22:30:03.316Z,0.40
2018-04-12T22:32:36.581Z,0.50
2018-04-12T22:35:10.615Z,0.50
2018-04-12T22:37:43.883Z,0.53
2018-04-12T22:40:17.144Z,0.50
2018-04-12T22:42:50.417Z,0.40
2018-04-12T22:45:23.671Z,0.40
2018-04-12T22:47:56.964Z,0.60
2018-04-12T22:50:30.983Z,0.80
2018-04-12T22:53:04.253Z,0.60
2018-04-12T22:55:37.500Z,0.90
2018-04-12T22:58:10.771Z,0.70
2018-04-12T23:00:44.028Z,0.80
2018-04-12T23:03:17.305Z,0.60
2018-04-12T23:05:50.572Z,0.77
2018-04-12T23:08:23.839Z,0.90
2018-04-12T23:10:57.860Z,0.80
2018-04-12T23:13:31.138Z,0.53
2018-04-12T23:16:04.391Z,0.70
2018-04-12T23:18:37.659Z,0.60
2018-04-12T23:21:10.924Z,0.73
2018-04-12T23:23:44.964Z,0.70
2018-04-12T23:26:18.224Z,0.80
2018-04-12T23:28:51.487Z,0.40
2018-04-12T23:31:24.748Z,0.50
2018-04-12T23:33:58.024Z,0.40
2018-04-12T23:36:31.285Z,0.53
2018-04-12T23:39:04.566Z,0.30
2018-04-12T23:41:37.822Z,0.40
2018-04-12T23:44:11.101Z,0.50
2018-04-12T23:46:44.347Z,0.40
2018-04-12T23:49:17.627Z,0.30
2018-04-12T23:51:50.888Z,0.47
2018-04-12T23:54:24.163Z,0.40
2018-04-12T23:56:57.420Z,0.30
2018-04-12T23:59:30.696Z,0.47
